*** The Vicarage Weather Feed ***

Nearby METAR Reports


 

CYOO - Oshawa, Municipal Airport, Ontario, Canada
Distance from station: NW 3.2km
Updated: 29/11/2020 20:00
Few Clouds
Few Clouds
 Wind from SW
Wind: SW 9 km/h
Temperature: 7°C
Wind Chill: 6°C
Dew Point: 2°C
Humidity: 71%
Barometer: 1011.9 hPa
Clouds: Few Clouds
Visibility: 14 km
Cloud details: Few Clouds 7620 m
2020/11/30 01:00 CYOO 300100Z AUTO 22005KT 9SM FEW250 07/02 A2988 RMK SLP128
CYKZ - Toronto, Buttonville, Municipal Airport, Ontario, Canada
Distance from station: W 39.75km
Updated: 03/01/2019 04:00
NOT Current
Partly cloudy
Partly cloudy
 Wind from WSW
Wind: WSW 7 km/h
Temperature: -3°C
Wind Chill: -6°C
Dew Point: -5°C
Humidity: 86%
Barometer: 1010.8 hPa
Clouds: Partly cloudy
Visibility: 24 km
Cloud details: Partly cloudy 1219 m
2019/01/03 09:00 CYKZ 030900Z 25004KT 15SM SCT040 M03/M05 A2985 RMK SC3 LAST STFD OBS FAREWELL SLP118
 
CXTO - Toronto City, Buttonville, Ontario, Canada
Distance from station: WSW 49km
Updated: 29/11/2020 20:00

 
Temperature: 7°C
Dew Point: 2°C
Humidity: 71%
2020/11/30 01:00 CXTO 300100Z AUTO 07/02 RMK AO1 SLP132 T00730018 58004
CYTZ - Toronto City, Island Airport, Ontario, Canada
Distance from station: SW 51.7km
Updated: 29/11/2020 20:00
Clear
Clear
 Wind from W
Wind: W 7 km/h
Temperature: 6°C
Wind Chill: 4°C
Dew Point: 4°C
Humidity: 87%
Barometer: 1012.9 hPa
Clouds: Clear
Visibility: 14 km
2020/11/30 01:00 CYTZ 300100Z AUTO 26004KT 9SM CLR 06/04 A2991 RMK SLP130
 
CYPQ - Toronto, Peterborough Airport, Ontario, Canada
Distance from station: NE 54km
Updated: 29/11/2020 20:00
Few Clouds
Few Clouds
 Wind from SSW
Wind: SSW 9 km/h
Temperature: 5°C
Wind Chill: 3°C
Dew Point: 2°C
Humidity: 81%
Barometer: 1011.9 hPa
Clouds: Few Clouds
Visibility: 14 km
Cloud details: Few Clouds 6401 m
2020/11/30 01:00 CYPQ 300100Z AUTO 21005KT 9SM FEW210 05/02 A2988 RMK SLP132
CWNC - Cobourg, (mars), Ontario, Canada
Distance from station: E 57km
Updated: 29/11/2020 20:00

 Wind from WNW
Wind: WNW 6 km/h
Temperature: 7°C
Dew Point: 3°C
Humidity: 76%
2020/11/30 01:00 CWNC 300100Z AUTO 29003KT 07/03 RMK AO1 SOG 01 8007 SLP135 T00720027
 
CYYZ - Toronto, Lester Pearson Airport, Ontario, Canada
Distance from station: W 65.5km
Updated: 29/11/2020 20:00
Mostly cloudy
Mostly cloudy
 Wind from SW
Wind: SW 15 km/h
Temperature: 7°C
Wind Chill: 4°C
Dew Point: 1°C
Humidity: 66%
Barometer: 1012.2 hPa
Clouds: Mostly cloudy
Visibility: 24 km
Cloud details: Mostly cloudy 7010 m
2020/11/30 01:00 CYYZ 300100Z 22008KT 15SM BKN230 07/01 A2989 RMK CI6 SLP128
CWGL - Lagoon City, Ontario, Canada
Distance from station: NNW 74km
Updated: 29/11/2020 20:00

 Wind from S
Wind: S 22 km/h
Temperature: 6°C
Wind Chill: 2°C
Dew Point: 3°C
Humidity: 81%
2020/11/30 01:00 CWGL 300100Z AUTO 17012KT 06/03 RMK AO1 SLP099 T00580031 58005
 
CWWZ - Port Weller Airport, Ontario, Canada
Distance from station: SSW 77km
Updated: 29/11/2020 20:00

 Wind from calm
Wind: Calm
Temperature: 7°C
Dew Point: 3°C
Humidity: 76%
2020/11/30 01:00 CWWZ 300100Z AUTO 00000KT 07/03 RMK AO1 SOG 01 5005 SLP135 T00700030
CYSN - St.Catharines Niagara Airport, Ontario, Canada
Distance from station: SSW 81km
Updated: 29/11/2020 20:00
Mostly cloudy
Mostly cloudy
 Wind from SSW
Wind: SSW 17 km/h
Temperature: 6°C
Wind Chill: 3°C
Dew Point: 2°C
Humidity: 76%
Barometer: 1012.9 hPa
Clouds: Mostly cloudy
Visibility: 24 km
Cloud details: Mostly cloudy 7010 m
2020/11/30 01:00 CYSN 300100Z 20009KT 15SM BKN230 06/02 A2991 RMK CI6 SLP133
This data is offered only as a general guide to local weather conditions. It should not be relied upon in lieu of officially disseminated weather information for determining possible risk to persons or property. This site, including all information contained therein, is made available as is without warranties of any kind, either express or implied. The Vicarage Weather Feed© includes links to other sites for user convenience only. The content of any linked third-party site is not controlled by The Vicarage Weather Feed©. Access to any third-party website through The Vicarage Weather Feed©, regardless of whether or not the third-party site is a linked site, is entirely at the users own risk. Externally sourced content or material is excluded from The Vicarage Weather Feed© copyright and is the copyright and property of the respective provider. Skywarn® and the Skywarn® logo are registered trademarks of the National Oceanic and Atmospheric Administration, used with permission.